»·PEaware :: N704YA CYCG-KGEG

N704YA :: CYCG-KGEG

FLIGHT INFORMATION

Flight Status: Arrived
Operator: Privately registered:
United States
More flights under this callsign
Pilot: Wayne R. (17783)
Aircraft: CESSNA 152 AEROBAT
(C152)
More flights by this aircraft type
Origin: CYCG Castlegar
Canada
Destination: KGEG Spokane Intl
United States
More flights between these airports :: More routes between these airports
Route:
File this flight plan on PilotEdge
Remarks:
Altitude:
(Current/Filed)
7,500ft
Speed:
(Current/Filed)
100kts
Departed: 06-Nov-20 05:41 PM
Arrived: 06-Nov-20 06:52 PM
Distance/Time
Traveled:
100nm/1:10
Distance/Time
To Go:
Arrived

Flight Plot

Page will automatically refresh every two minutes.

Flight plan parsing failed; only flown route is shown


Map Options




Map Legend


Flown Route
Filed Route
Departure Airport
Arrival Airport
Navaid (VOR, NDB)
Fix

Horizontal Profiles

Position Reports

Time Latitude Longitude Heading Altitude Ground
Speed
06-Nov-20 17:39 49.289503 -117.630631 349 1623ft 0kts
06-Nov-20 17:40 49.292678 -117.631563 351 1647ft 54kts
06-Nov-20 17:41 49.291777 -117.644049 196 2118ft 70kts
06-Nov-20 17:42 49.272897 -117.645413 132 2685ft 78kts
06-Nov-20 17:43 49.281318 -117.644024 264 3146ft 81kts
06-Nov-20 17:44 49.264472 -117.662686 198 3602ft 83kts
06-Nov-20 17:45 49.241281 -117.670193 202 3950ft 90kts
06-Nov-20 17:46 49.218415 -117.683302 199 4367ft 86kts
06-Nov-20 17:47 49.195062 -117.694051 199 4859ft 88kts
06-Nov-20 17:48 49.190102 -117.696297 194 4975ft 88kts
06-Nov-20 17:49 49.182135 -117.698722 193 5136ft 91kts
06-Nov-20 17:50 49.156669 -117.707451 201 5522ft 96kts
06-Nov-20 17:51 49.132931 -117.724918 215 5845ft 93kts
06-Nov-20 17:52 49.110628 -117.747001 184 5983ft 101kts
06-Nov-20 17:53 49.092875 -117.715977 121 5969ft 106kts
06-Nov-20 17:54 49.075595 -117.680227 129 6034ft 101kts
06-Nov-20 17:55 49.055654 -117.650151 152 6140ft 101kts
06-Nov-20 17:56 49.028744 -117.645171 189 6292ft 98kts
06-Nov-20 17:57 49.003237 -117.653998 208 6556ft 90kts
06-Nov-20 17:58 48.980615 -117.670264 175 6892ft 92kts
06-Nov-20 17:59 48.957497 -117.653721 153 7268ft 92kts
06-Nov-20 18:00 48.953757 -117.629531 3 7454ft 101kts
06-Nov-20 18:01 48.969365 -117.603691 111 7418ft 108kts
06-Nov-20 18:02 48.953780 -117.565190 118 7419ft 107kts
06-Nov-20 18:03 48.932240 -117.539962 175 7354ft 109kts
06-Nov-20 18:04 48.904514 -117.550980 189 7365ft 104kts
06-Nov-20 18:05 48.877611 -117.565332 203 7367ft 104kts
06-Nov-20 18:06 48.850744 -117.581530 200 7363ft 104kts
06-Nov-20 18:07 48.821792 -117.585961 181 7342ft 104kts
06-Nov-20 18:08 48.793045 -117.586041 169 7369ft 103kts
06-Nov-20 18:09 48.768336 -117.563496 154 7387ft 103kts
06-Nov-20 18:10 48.741777 -117.547548 162 7487ft 102kts
06-Nov-20 18:11 48.715803 -117.529847 145 7529ft 103kts
06-Nov-20 18:12 48.688483 -117.520257 180 7573ft 102kts
06-Nov-20 18:13 48.660117 -117.523071 184 7615ft 102kts
06-Nov-20 18:14 48.631682 -117.526420 188 7672ft 102kts
06-Nov-20 18:15 48.604156 -117.536817 192 7740ft 102kts
06-Nov-20 18:16 48.575520 -117.543202 189 7727ft 104kts
06-Nov-20 18:17 48.547299 -117.553274 197 7752ft 104kts
06-Nov-20 18:18 48.518461 -117.559145 179 7621ft 106kts
06-Nov-20 18:19 48.489062 -117.561181 195 7584ft 105kts
06-Nov-20 18:20 48.460104 -117.568115 182 7533ft 105kts
06-Nov-20 18:21 48.433338 -117.550634 163 7486ft 100kts
06-Nov-20 18:22 48.405709 -117.541845 178 7533ft 101kts
06-Nov-20 18:23 48.378169 -117.549271 201 7598ft 101kts
06-Nov-20 18:24 48.351487 -117.562687 190 7677ft 101kts
06-Nov-20 18:25 48.323199 -117.562363 181 7755ft 101kts
06-Nov-20 18:26 48.295123 -117.567119 194 7778ft 101kts
06-Nov-20 18:27 48.267016 -117.570116 177 7800ft 102kts
06-Nov-20 18:28 48.238627 -117.569031 179 7879ft 102kts
06-Nov-20 18:29 48.209443 -117.569804 186 7777ft 105kts
06-Nov-20 18:30 48.180232 -117.569776 179 7684ft 104kts
06-Nov-20 18:31 48.151257 -117.571838 185 7601ft 104kts
06-Nov-20 18:32 48.122586 -117.578578 192 7486ft 104kts
06-Nov-20 18:33 48.094050 -117.584026 177 7417ft 104kts
06-Nov-20 18:34 48.065114 -117.580304 170 7318ft 104kts
06-Nov-20 18:35 48.036416 -117.574149 172 7195ft 104kts
06-Nov-20 18:36 48.007793 -117.567434 172 7041ft 104kts
06-Nov-20 18:37 47.978993 -117.562629 177 6874ft 103kts
06-Nov-20 18:38 47.950339 -117.558494 174 6702ft 103kts
06-Nov-20 18:39 47.921847 -117.553130 174 6526ft 103kts
06-Nov-20 18:40 47.893279 -117.549064 176 6366ft 102kts
06-Nov-20 18:41 47.864861 -117.550192 177 6210ft 103kts
06-Nov-20 18:42 47.837491 -117.537694 162 6044ft 103kts
06-Nov-20 18:43 47.810196 -117.525310 166 5958ft 102kts
06-Nov-20 18:44 47.782224 -117.517993 173 5890ft 102kts
06-Nov-20 18:45 47.754037 -117.512684 172 5788ft 102kts
06-Nov-20 18:46 47.726675 -117.502158 163 5662ft 102kts
06-Nov-20 18:47 47.699678 -117.490526 164 4917ft 99kts
06-Nov-20 18:48 47.673689 -117.481924 176 3720ft 93kts
06-Nov-20 18:49 47.651679 -117.489741 216 2998ft 74kts
06-Nov-20 18:50 47.636541 -117.510381 226 2536ft 74kts
06-Nov-20 18:51 47.626623 -117.523644 133 2338ft 13kts
06-Nov-20 18:52 47.625493 -117.523434 221 2341ft 10kts
06-Nov-20 18:53 47.623969 -117.524218 285 2346ft 0kts

Navigation Log

Ident Type
Flight plan parsing failed, navigation log unavailable